Time;durP1;ratioP1;P1;durP2;ratioP2;P2;SDS_P1;SDS_P2;PMS_P1;PMS_P2;Temp;Humidity;BMP_temperature;BMP_pressure;BME280_temperature;BME280_humidity;BME280_pressure;Samples;Min_cycle;Max_cycle;Signal;HPM_P1;HPM_P2
2022/11/17 00:01:23;;;;;;;8.52;3.83;;;;;;;;;;6272092;22;20016;-78
2022/11/17 00:03:49;;;;;;;6.60;4.05;;;;;;;;;;6246640;22;20016;-79
2022/11/17 00:06:15;;;;;;;4.63;3.30;;;;;;;;;;6271511;22;20316;-79
2022/11/17 00:08:40;;;;;;;6.07;4.03;;;;;;;;;;6246375;22;20061;-79
2022/11/17 00:11:05;;;;;;;5.53;3.58;;;;;;;;;;6272069;22;20427;-79
2022/11/17 00:16:15;;;;;;;5.60;3.40;;;;;;;;;;6272340;22;20011;-79
2022/11/17 00:21:27;;;;;;;5.45;3.22;;;;;;;;;;6272145;22;20084;-79
2022/11/17 00:23:53;;;;;;;5.47;3.10;;;;;;;;;;6273899;22;20000;-79
2022/11/17 00:26:19;;;;;;;5.50;3.13;;;;;;;;;;6221217;22;20011;-81
2022/11/17 00:28:44;;;;;;;;;;;;;;;;;;6221756;22;20339;-80
2022/11/17 00:34:03;;;;;;;5.03;3.35;;;;;;;;;;6272264;22;20011;-80
2022/11/17 00:36:29;;;;;;;6.68;3.95;;;;;;;;;;6272124;22;20094;-80
2022/11/17 00:38:55;;;;;;;8.77;4.10;;;;;;;;;;6272021;22;20352;-81
2022/11/17 00:41:20;;;;;;;8.68;4.50;;;;;;;;;;6272381;22;20027;-80
2022/11/17 00:43:46;;;;;;;11.10;4.15;;;;;;;;;;6246608;22;20003;-80
2022/11/17 00:46:11;;;;;;;6.05;4.20;;;;;;;;;;6246498;22;20015;-80
2022/11/17 00:48:37;;;;;;;6.97;3.72;;;;;;;;;;6273009;22;20122;-80
2022/11/17 00:51:03;;;;;;;7.28;5.07;;;;;;;;;;6271907;22;20011;-80
2022/11/17 00:53:28;;;;;;;7.13;4.47;;;;;;;;;;6271631;22;20023;-80
2022/11/17 00:55:54;;;;;;;5.68;3.90;;;;;;;;;;6271847;22;20045;-81
2022/11/17 00:58:19;;;;;;;9.00;4.43;;;;;;;;;;6268917;22;20003;-81
2022/11/17 01:00:47;;;;;;;6.65;4.18;;;;;;;;;;6241616;23;20020;-80
2022/11/17 01:03:12;;;;;;;7.00;4.25;;;;;;;;;;6266702;22;20012;-80
2022/11/17 01:05:38;;;;;;;7.22;4.35;;;;;;;;;;6266900;22;20123;-79
2022/11/17 01:08:03;;;;;;;7.95;4.75;;;;;;;;;;6266417;22;20003;-79
2022/11/17 01:10:29;;;;;;;9.95;5.05;;;;;;;;;;6266401;22;20019;-79
2022/11/17 01:12:54;;;;;;;5.80;4.18;;;;;;;;;;6266390;22;19996;-79
2022/11/17 01:15:20;;;;;;;7.05;4.85;;;;;;;;;;6242281;22;20008;-79
2022/11/17 01:17:45;;;;;;;7.57;4.72;;;;;;;;;;6240792;23;19996;-79
2022/11/17 01:20:11;;;;;;;10.77;4.45;;;;;;;;;;6242681;23;20364;-79
2022/11/17 01:22:36;;;;;;;7.90;4.95;;;;;;;;;;6268600;22;20008;-79
2022/11/17 01:25:03;;;;;;;7.93;4.72;;;;;;;;;;6244200;22;20012;-81
2022/11/17 01:27:29;;;;;;;8.98;5.13;;;;;;;;;;6268509;22;20008;-79
2022/11/17 01:29:54;;;;;;;9.63;4.65;;;;;;;;;;6242915;22;20443;-79
2022/11/17 01:32:20;;;;;;;10.18;4.60;;;;;;;;;;6242592;22;20000;-79
2022/11/17 01:34:46;;;;;;;10.45;4.47;;;;;;;;;;6244230;22;20008;-78
2022/11/17 01:37:20;;;;;;;7.57;4.20;;;;;;;;;;6268523;22;20138;-79
2022/11/17 01:39:46;;;;;;;7.22;4.35;;;;;;;;;;6268335;22;20197;-81
2022/11/17 01:42:13;;;;;;;7.78;4.47;;;;;;;;;;6243479;23;20004;-80
2022/11/17 01:44:54;;;;;;;8.27;4.80;;;;;;;;;;6268609;22;20340;-80
2022/11/17 01:47:20;;;;;;;9.57;4.72;;;;;;;;;;6242707;23;20012;-80
2022/11/17 01:49:45;;;;;;;7.05;4.63;;;;;;;;;;6242699;23;20050;-80
2022/11/17 01:52:11;;;;;;;8.43;5.00;;;;;;;;;;6242599;23;20119;-80
2022/11/17 01:54:37;;;;;;;14.20;5.30;;;;;;;;;;6268116;22;20004;-80
2022/11/17 01:57:04;;;;;;;10.55;5.30;;;;;;;;;;6242990;23;20487;-80
2022/11/17 01:59:32;;;;;;;11.32;6.00;;;;;;;;;;6267511;22;20411;-79
2022/11/17 02:01:58;;;;;;;8.82;5.72;;;;;;;;;;6244553;22;20015;-80
2022/11/17 02:04:25;;;;;;;10.57;6.15;;;;;;;;;;6242386;23;20039;-80
2022/11/17 02:06:51;;;;;;;12.65;6.28;;;;;;;;;;6242789;23;20065;-80
2022/11/17 02:09:16;;;;;;;;;;;;;;;;;;6268171;22;20000;-80
2022/11/17 02:11:42;;;;;;;13.68;6.32;;;;;;;;;;6242732;23;19949;-79
2022/11/17 02:14:07;;;;;;;9.95;6.80;;;;;;;;;;6267984;22;20071;-79
2022/11/17 02:16:33;;;;;;;11.02;6.95;;;;;;;;;;6217262;23;20091;-79
2022/11/17 02:18:58;;;;;;;11.55;7.00;;;;;;;;;;6243839;22;20000;-80
2022/11/17 02:21:43;;;;;;;12.27;7.10;;;;;;;;;;6268217;22;20018;-80
2022/11/17 02:24:08;;;;;;;13.05;6.95;;;;;;;;;;6243795;23;20039;-80
2022/11/17 02:26:37;;;;;;;13.15;7.10;;;;;;;;;;6242238;23;20118;-81
2022/11/17 02:29:11;;;;;;;12.07;7.38;;;;;;;;;;6216877;23;20034;-79
2022/11/17 02:31:57;;;;;;;13.60;7.63;;;;;;;;;;6242486;23;20016;-80
2022/11/17 02:34:32;;;;;;;13.85;8.10;;;;;;;;;;6221289;22;20008;-80
2022/11/17 02:37:00;;;;;;;13.32;7.85;;;;;;;;;;6268121;22;20012;-80
2022/11/17 02:39:37;;;;;;;14.27;7.93;;;;;;;;;;6242572;23;20703;-80
2022/11/17 02:42:02;;;;;;;15.77;8.15;;;;;;;;;;6267966;22;20062;-78
2022/11/17 02:44:31;;;;;;;16.70;8.07;;;;;;;;;;6243614;22;20004;-80
2022/11/17 02:47:07;;;;;;;16.80;8.30;;;;;;;;;;6267871;22;20019;-80
2022/11/17 02:49:34;;;;;;;15.02;8.50;;;;;;;;;;6267942;22;20012;-80
2022/11/17 02:51:59;;;;;;;17.65;8.70;;;;;;;;;;6267840;22;20003;-80
2022/11/17 02:54:25;;;;;;;16.55;8.40;;;;;;;;;;6242205;22;20091;-80
2022/11/17 02:56:51;;;;;;;;;;;;;;;;;;6242781;22;20762;-80
2022/11/17 02:59:17;;;;;;;14.93;8.35;;;;;;;;;;6242104;23;19934;-78
2022/11/17 03:01:51;;;;;;;15.82;8.75;;;;;;;;;;6267519;22;20047;-79
2022/11/17 03:04:26;;;;;;;13.63;8.10;;;;;;;;;;6216487;23;20016;-78
2022/11/17 03:06:51;;;;;;;13.35;8.20;;;;;;;;;;6242172;23;20109;-79
2022/11/17 03:09:17;;;;;;;13.77;7.95;;;;;;;;;;6243637;22;20075;-78
2022/11/17 03:11:44;;;;;;;14.15;8.40;;;;;;;;;;6243101;23;20004;-79
2022/11/17 03:14:16;;;;;;;15.45;8.10;;;;;;;;;;6217162;23;20000;-79
2022/11/17 03:16:49;;;;;;;13.55;7.85;;;;;;;;;;6241854;23;20011;-80
2022/11/17 03:19:19;;;;;;;15.82;7.85;;;;;;;;;;6242235;22;20012;-79
2022/11/17 03:21:49;;;;;;;13.07;8.00;;;;;;;;;;6242186;23;20039;-80
2022/11/17 03:24:16;;;;;;;14.18;8.07;;;;;;;;;;6267604;22;20499;-80
2022/11/17 03:26:46;;;;;;;13.77;8.07;;;;;;;;;;6216833;23;20011;-81
2022/11/17 03:29:13;;;;;;;10.88;7.38;;;;;;;;;;6241914;23;20014;-79
2022/11/17 03:31:38;;;;;;;14.25;8.27;;;;;;;;;;6217011;23;20339;-80
2022/11/17 03:34:04;;;;;;;17.08;8.55;;;;;;;;;;6242239;23;20014;-81
2022/11/17 03:36:32;;;;;;;20.77;8.23;;;;;;;;;;6267428;22;20000;-80
2022/11/17 03:38:59;;;;;;;16.33;8.90;;;;;;;;;;6267205;22;20018;-81
2022/11/17 03:41:24;;;;;;;15.20;8.70;;;;;;;;;;6241951;23;20000;-80
2022/11/17 03:43:50;;;;;;;16.25;9.07;;;;;;;;;;6243647;22;20016;-80
2022/11/17 03:46:16;;;;;;;17.30;9.15;;;;;;;;;;6242278;23;20128;-80
2022/11/17 03:49:00;;;;;;;19.70;8.90;;;;;;;;;;6242234;23;20012;-80
2022/11/17 03:51:26;;;;;;;14.30;8.30;;;;;;;;;;6243385;22;20012;-80
2022/11/17 03:53:52;;;;;;;;;;;;;;;;;;6267927;22;19996;-80
2022/11/17 03:56:17;;;;;;;19.02;8.68;;;;;;;;;;6243459;22;19915;-80
2022/11/17 03:58:44;;;;;;;19.25;10.43;;;;;;;;;;6243288;22;20364;-80
2022/11/17 04:01:10;;;;;;;15.40;6.97;;;;;;;;;;6266978;22;20012;-80
2022/11/17 04:03:36;;;;;;;12.80;7.68;;;;;;;;;;6243460;23;20020;-80
2022/11/17 04:06:02;;;;;;;12.98;7.28;;;;;;;;;;6243299;23;20015;-79
2022/11/17 04:08:29;;;;;;;14.13;6.70;;;;;;;;;;6267461;22;20490;-80
2022/11/17 04:16:23;;;;;;;15.00;7.07;;;;;;;;;;6241748;23;20352;-79
2022/11/17 04:18:50;;;;;;;15.05;6.93;;;;;;;;;;6267464;22;20015;-79
2022/11/17 04:21:15;;;;;;;10.85;6.65;;;;;;;;;;6267195;22;20016;-86
2022/11/17 04:23:41;;;;;;;12.38;7.07;;;;;;;;;;6241757;23;20083;-80
2022/11/17 04:28:51;;;;;;;17.67;7.45;;;;;;;;;;6263690;22;20019;-80
2022/11/17 04:31:17;;;;;;;15.50;8.60;;;;;;;;;;6243370;23;20420;-80
2022/11/17 04:33:44;;;;;;;16.95;7.60;;;;;;;;;;6267144;22;20297;-79
2022/11/17 04:36:10;;;;;;;14.85;7.60;;;;;;;;;;6267047;22;20007;-80
2022/11/17 04:38:35;;;;;;;;;;;;;;;;;;6268040;22;20451;-79
2022/11/17 04:43:46;;;;;;;16.33;7.72;;;;;;;;;;6243071;23;20463;-79
2022/11/17 04:46:11;;;;;;;14.73;7.57;;;;;;;;;;6241710;23;20007;-79
2022/11/17 04:48:37;;;;;;;16.50;7.78;;;;;;;;;;6267472;22;20711;-84
2022/11/17 04:51:05;;;;;;;18.30;8.43;;;;;;;;;;6268122;22;20006;-81
2022/11/17 04:53:31;;;;;;;20.95;7.60;;;;;;;;;;6241024;23;20012;-79
2022/11/17 04:56:00;;;;;;;12.32;7.05;;;;;;;;;;6267600;22;20454;-83
2022/11/17 04:58:25;;;;;;;15.75;7.10;;;;;;;;;;6241318;22;20039;-78
2022/11/17 05:00:51;;;;;;;15.70;7.45;;;;;;;;;;6244216;22;20043;-78
2022/11/17 05:03:16;;;;;;;18.42;7.63;;;;;;;;;;6243310;23;20414;-79
2022/11/17 05:05:45;;;;;;;15.27;7.85;;;;;;;;;;6266198;22;20004;-83
2022/11/17 05:08:11;;;;;;;18.38;7.78;;;;;;;;;;6266537;22;20009;-81
2022/11/17 05:13:24;;;;;;;15.57;7.28;;;;;;;;;;6246357;22;20012;-81
2022/11/17 05:18:37;;;;;;;18.23;9.30;;;;;;;;;;6241375;23;20047;-81
2022/11/17 05:21:03;;;;;;;19.50;10.05;;;;;;;;;;6241233;23;20338;-80
2022/11/17 05:26:13;;;;;;;18.27;9.48;;;;;;;;;;6262746;22;20019;-80
2022/11/17 05:28:38;;;;;;;18.75;10.20;;;;;;;;;;6266189;22;20004;-80
2022/11/17 05:31:04;;;;;;;16.58;9.85;;;;;;;;;;6266616;22;20021;-80
2022/11/17 05:33:29;;;;;;;22.25;10.30;;;;;;;;;;6266226;22;20003;-81
2022/11/17 05:35:55;;;;;;;20.77;10.23;;;;;;;;;;6266350;22;20008;-80
2022/11/17 05:38:20;;;;;;;20.70;9.90;;;;;;;;;;6240326;23;20015;-80
2022/11/17 05:40:46;;;;;;;20.20;11.23;;;;;;;;;;6266124;22;20024;-80
2022/11/17 05:43:11;;;;;;;22.20;10.63;;;;;;;;;;6266544;22;20011;-80
2022/11/17 05:45:37;;;;;;;22.08;10.15;;;;;;;;;;6266734;22;20016;-80
2022/11/17 05:48:02;;;;;;;17.10;9.55;;;;;;;;;;6240786;23;19996;-80
2022/11/17 05:50:28;;;;;;;19.52;9.90;;;;;;;;;;6241923;23;20012;-79
2022/11/17 05:52:59;;;;;;;22.90;9.65;;;;;;;;;;6240902;23;20003;-81
2022/11/17 05:55:25;;;;;;;18.58;9.40;;;;;;;;;;6243068;22;20008;-79
2022/11/17 05:57:51;;;;;;;19.25;8.80;;;;;;;;;;6240895;23;19996;-80
2022/11/17 06:00:17;;;;;;;14.13;8.82;;;;;;;;;;6242096;22;20020;-81
2022/11/17 06:02:44;;;;;;;18.15;8.85;;;;;;;;;;6242098;23;20028;-81
2022/11/17 06:05:09;;;;;;;20.55;8.88;;;;;;;;;;6267641;22;20062;-79
2022/11/17 06:07:35;;;;;;;21.05;10.23;;;;;;;;;;6244155;22;20425;-80
2022/11/17 06:10:00;;;;;;;21.90;8.95;;;;;;;;;;6268063;22;20348;-81
2022/11/17 06:12:26;;;;;;;17.55;9.70;;;;;;;;;;6243642;23;20004;-81
2022/11/17 06:14:51;;;;;;;13.18;9.35;;;;;;;;;;6268015;22;20046;-80
2022/11/17 06:17:21;;;;;;;18.30;9.10;;;;;;;;;;6243616;22;20000;-80
2022/11/17 06:19:47;;;;;;;13.35;8.73;;;;;;;;;;6268038;22;20012;-82
2022/11/17 06:22:13;;;;;;;18.73;9.80;;;;;;;;;;6267942;22;20011;-80
2022/11/17 06:24:38;;;;;;;18.15;9.20;;;;;;;;;;6242174;23;20063;-80
2022/11/17 06:27:04;;;;;;;16.73;8.93;;;;;;;;;;6267562;22;20038;-80
2022/11/17 06:29:29;;;;;;;22.05;10.10;;;;;;;;;;6242027;23;20004;-81
2022/11/17 06:31:55;;;;;;;18.25;8.50;;;;;;;;;;6217029;23;20028;-82
2022/11/17 06:34:21;;;;;;;17.35;9.63;;;;;;;;;;6267859;22;20031;-80
2022/11/17 06:36:46;;;;;;;14.43;8.77;;;;;;;;;;6267244;22;20004;-80
2022/11/17 06:39:11;;;;;;;16.55;9.30;;;;;;;;;;6242103;23;20447;-80
2022/11/17 06:41:38;;;;;;;14.75;8.50;;;;;;;;;;6267888;22;20010;-81
2022/11/17 06:44:04;;;;;;;18.30;9.85;;;;;;;;;;6268110;22;20062;-80
2022/11/17 06:46:36;;;;;;;17.45;10.35;;;;;;;;;;6241744;23;20004;-80
2022/11/17 06:49:08;;;;;;;17.67;10.63;;;;;;;;;;6266450;22;20019;-81
2022/11/17 06:51:34;;;;;;;17.92;8.65;;;;;;;;;;6242169;23;20012;-80
2022/11/17 06:53:59;;;;;;;16.17;9.68;;;;;;;;;;6267036;22;20000;-81
2022/11/17 06:56:25;;;;;;;23.83;10.45;;;;;;;;;;6267683;22;20069;-81
2022/11/17 06:58:50;;;;;;;19.08;10.50;;;;;;;;;;6241961;23;20020;-80
2022/11/17 07:01:16;;;;;;;;;;;;;;;;;;6268412;22;20069;-80
2022/11/17 07:03:42;;;;;;;22.50;11.13;;;;;;;;;;6243526;22;19907;-81
2022/11/17 07:06:08;;;;;;;18.00;9.30;;;;;;;;;;6267942;22;20016;-81
2022/11/17 07:08:33;;;;;;;19.05;9.85;;;;;;;;;;6241934;23;20301;-80
2022/11/17 07:11:03;;;;;;;21.85;9.73;;;;;;;;;;6267832;22;20436;-82
2022/11/17 07:13:28;;;;;;;18.65;9.18;;;;;;;;;;6268119;22;19996;-81
2022/11/17 07:15:54;;;;;;;18.67;8.45;;;;;;;;;;6266965;22;20019;-81
2022/11/17 07:18:19;;;;;;;21.48;12.25;;;;;;;;;;6243236;23;20000;-80
2022/11/17 07:20:45;;;;;;;19.30;10.50;;;;;;;;;;6267415;22;20022;-81
2022/11/17 07:23:11;;;;;;;17.83;8.75;;;;;;;;;;6242146;22;20032;-82
2022/11/17 07:25:36;;;;;;;18.13;8.43;;;;;;;;;;6243304;22;20474;-80
2022/11/17 07:28:02;;;;;;;15.35;8.23;;;;;;;;;;6242131;23;20079;-81
2022/11/17 07:30:27;;;;;;;20.10;8.27;;;;;;;;;;6241212;23;20019;-81
2022/11/17 07:32:53;;;;;;;20.17;8.50;;;;;;;;;;6243763;23;19996;-81
2022/11/17 07:35:18;;;;;;;20.60;8.82;;;;;;;;;;6243209;22;20016;-82
2022/11/17 07:37:44;;;;;;;18.75;8.10;;;;;;;;;;6216397;23;20022;-81
2022/11/17 07:40:09;;;;;;;17.42;7.93;;;;;;;;;;6242955;23;20059;-81
2022/11/17 07:42:35;;;;;;;18.48;8.45;;;;;;;;;;6267219;22;20000;-81
2022/11/17 07:45:04;;;;;;;17.45;8.43;;;;;;;;;;6241400;23;20015;-81
2022/11/17 07:47:29;;;;;;;;;;;;;;;;;;6267275;22;20004;-81
2022/11/17 07:49:55;;;;;;;17.60;6.85;;;;;;;;;;6241796;23;19953;-81
2022/11/17 07:52:20;;;;;;;16.40;6.30;;;;;;;;;;6243986;23;20134;-82
2022/11/17 07:54:46;;;;;;;16.20;7.35;;;;;;;;;;6268034;22;20353;-82
2022/11/17 07:57:11;;;;;;;19.98;7.10;;;;;;;;;;6267051;22;20000;-81
2022/11/17 07:59:37;;;;;;;19.80;7.07;;;;;;;;;;6266461;22;20108;-82
2022/11/17 08:02:02;;;;;;;19.60;8.10;;;;;;;;;;6242727;22;20348;-81
2022/11/17 08:04:28;;;;;;;20.90;10.80;;;;;;;;;;6267229;22;20452;-82
2022/11/17 08:06:53;;;;;;;14.57;7.20;;;;;;;;;;6215582;23;20008;-81
2022/11/17 08:09:19;;;;;;;18.58;6.95;;;;;;;;;;6266784;22;20379;-82
2022/11/17 08:11:44;;;;;;;14.80;6.93;;;;;;;;;;6266757;22;20054;-81
2022/11/17 08:14:10;;;;;;;19.83;7.10;;;;;;;;;;6243274;22;20008;-82
2022/11/17 08:16:35;;;;;;;21.67;6.93;;;;;;;;;;6242366;22;20574;-80
2022/11/17 08:19:03;;;;;;;12.02;6.35;;;;;;;;;;6241621;23;20012;-81
2022/11/17 08:21:28;;;;;;;15.00;6.30;;;;;;;;;;6267024;22;20027;-83
2022/11/17 08:23:55;;;;;;;15.05;8.07;;;;;;;;;;6267315;22;20015;-82
2022/11/17 08:26:20;;;;;;;12.25;6.53;;;;;;;;;;6266120;22;20012;-82
2022/11/17 08:28:46;;;;;;;10.43;6.18;;;;;;;;;;6242516;23;20018;-80
2022/11/17 08:31:11;;;;;;;11.68;6.28;;;;;;;;;;6241294;23;20332;-80
2022/11/17 08:33:37;;;;;;;12.70;6.80;;;;;;;;;;6267154;22;20050;-79
2022/11/17 08:36:03;;;;;;;14.85;7.57;;;;;;;;;;6242373;23;20081;-80
2022/11/17 08:38:28;;;;;;;13.02;5.63;;;;;;;;;;6266609;22;20008;-82
2022/11/17 08:40:58;;;;;;;13.45;6.30;;;;;;;;;;6266471;22;20020;-81
2022/11/17 08:43:23;;;;;;;15.98;6.68;;;;;;;;;;6266584;22;20436;-81
2022/11/17 08:45:49;;;;;;;12.40;5.72;;;;;;;;;;6215320;23;20015;-81
2022/11/17 08:48:14;;;;;;;13.35;6.55;;;;;;;;;;6266528;22;20075;-80
2022/11/17 08:50:40;;;;;;;12.90;6.40;;;;;;;;;;6266121;22;20097;-80
2022/11/17 08:53:05;;;;;;;13.50;6.78;;;;;;;;;;6240712;23;19996;-80
2022/11/17 08:55:35;;;;;;;18.52;7.93;;;;;;;;;;6240724;23;20380;-81
2022/11/17 08:58:02;;;;;;;13.75;6.90;;;;;;;;;;6241087;23;20008;-80
2022/11/17 09:00:27;;;;;;;12.52;6.63;;;;;;;;;;6265816;22;20089;-82
2022/11/17 09:02:53;;;;;;;11.82;7.32;;;;;;;;;;6266135;22;20076;-81
2022/11/17 09:05:19;;;;;;;10.10;5.93;;;;;;;;;;6240621;23;20058;-81
2022/11/17 09:07:45;;;;;;;14.85;6.57;;;;;;;;;;6266080;22;20358;-81
2022/11/17 09:10:11;;;;;;;8.98;5.95;;;;;;;;;;6242608;22;20008;-80
2022/11/17 09:12:36;;;;;;;14.18;6.13;;;;;;;;;;6266330;22;20348;-81
2022/11/17 09:15:02;;;;;;;10.65;6.57;;;;;;;;;;6266184;22;20455;-82
2022/11/17 09:17:29;;;;;;;13.23;7.90;;;;;;;;;;6266429;22;20000;-80
2022/11/17 09:19:54;;;;;;;12.65;8.00;;;;;;;;;;6240410;23;20103;-81
2022/11/17 09:22:20;;;;;;;11.25;6.78;;;;;;;;;;6242617;22;20097;-82
2022/11/17 09:24:45;;;;;;;10.32;6.88;;;;;;;;;;6266287;22;20016;-81
2022/11/17 09:27:11;;;;;;;13.20;8.77;;;;;;;;;;6266541;22;20454;-82
2022/11/17 09:29:36;;;;;;;15.25;7.72;;;;;;;;;;6243419;23;20500;-81
2022/11/17 09:32:02;;;;;;;12.60;7.93;;;;;;;;;;6241149;23;20023;-81
2022/11/17 09:34:28;;;;;;;13.38;7.55;;;;;;;;;;6241336;23;20082;-81
2022/11/17 09:36:53;;;;;;;15.95;8.30;;;;;;;;;;6240648;23;20007;-81
2022/11/17 09:39:20;;;;;;;14.20;7.47;;;;;;;;;;6242255;23;20039;-81
2022/11/17 09:41:49;;;;;;;11.60;7.05;;;;;;;;;;6243819;23;20074;-81
2022/11/17 09:44:24;;;;;;;10.00;6.22;;;;;;;;;;6268297;22;20018;-80
2022/11/17 09:46:53;;;;;;;8.63;5.70;;;;;;;;;;6242444;23;20016;-80
2022/11/17 09:49:25;;;;;;;8.93;5.00;;;;;;;;;;6242966;23;20046;-81
2022/11/17 09:51:51;;;;;;;7.53;5.03;;;;;;;;;;6244166;23;20008;-81
2022/11/17 09:54:20;;;;;;;9.63;5.10;;;;;;;;;;6243080;23;20035;-82
2022/11/17 09:56:46;;;;;;;10.45;5.32;;;;;;;;;;6268503;22;20079;-82
2022/11/17 09:59:12;;;;;;;7.78;4.88;;;;;;;;;;6243214;23;20027;-82
2022/11/17 10:01:37;;;;;;;10.00;4.43;;;;;;;;;;6242535;23;20015;-81
2022/11/17 10:04:07;;;;;;;6.55;4.53;;;;;;;;;;6268374;22;20023;-81
2022/11/17 10:06:32;;;;;;;11.63;5.25;;;;;;;;;;6268000;22;20017;-82
2022/11/17 10:09:15;;;;;;;7.85;5.30;;;;;;;;;;6268138;22;20004;-81
2022/11/17 10:11:40;;;;;;;8.18;5.00;;;;;;;;;;6267873;22;20018;-80
2022/11/17 10:14:16;;;;;;;8.30;4.45;;;;;;;;;;6267939;22;20079;-81
2022/11/17 10:16:42;;;;;;;7.53;4.53;;;;;;;;;;6268130;22;20016;-83
2022/11/17 10:19:17;;;;;;;6.90;4.15;;;;;;;;;;6241980;23;20026;-81
2022/11/17 10:21:43;;;;;;;8.95;4.38;;;;;;;;;;6243957;23;20082;-81
2022/11/17 10:24:09;;;;;;;7.38;4.90;;;;;;;;;;6267478;22;20000;-81
2022/11/17 10:26:47;;;;;;;7.95;4.82;;;;;;;;;;6268009;22;20523;-83
2022/11/17 10:29:13;;;;;;;7.45;4.75;;;;;;;;;;6267670;22;20399;-82
2022/11/17 10:31:39;;;;;;;7.32;4.53;;;;;;;;;;6268196;22;20328;-82
2022/11/17 10:34:05;;;;;;;10.25;5.10;;;;;;;;;;6268188;22;20406;-83
2022/11/17 10:36:30;;;;;;;7.82;5.32;;;;;;;;;;6217284;23;20027;-82
2022/11/17 10:38:57;;;;;;;9.10;6.13;;;;;;;;;;6267899;22;20027;-82
2022/11/17 10:41:24;;;;;;;6.35;4.30;;;;;;;;;;6242410;23;20000;-82
2022/11/17 10:43:55;;;;;;;6.28;4.13;;;;;;;;;;6242548;23;20012;-82
2022/11/17 10:46:22;;;;;;;7.40;4.88;;;;;;;;;;6268227;22;20020;-82
2022/11/17 10:48:59;;;;;;;6.65;4.38;;;;;;;;;;6243793;23;20398;-82
2022/11/17 10:51:28;;;;;;;12.23;5.22;;;;;;;;;;6267260;22;20054;-82
2022/11/17 10:54:01;;;;;;;7.25;4.10;;;;;;;;;;6268187;22;20000;-79
2022/11/17 10:56:26;;;;;;;6.97;5.05;;;;;;;;;;6268001;22;20016;-81
2022/11/17 10:59:11;;;;;;;10.88;5.07;;;;;;;;;;6242375;23;20449;-81
2022/11/17 11:01:38;;;;;;;9.73;5.25;;;;;;;;;;6243467;23;20020;-81
2022/11/17 11:04:04;;;;;;;9.40;4.80;;;;;;;;;;6267819;22;20455;-81
2022/11/17 11:06:30;;;;;;;8.02;4.40;;;;;;;;;;6266990;22;20099;-81
2022/11/17 11:08:56;;;;;;;6.57;4.60;;;;;;;;;;6241953;23;20000;-81
2022/11/17 11:11:21;;;;;;;;;;;;;;;;;;6242246;22;20058;-81
2022/11/17 11:14:08;;;;;;;6.05;4.25;;;;;;;;;;6243869;22;19903;-82
2022/11/17 11:16:33;;;;;;;7.85;4.70;;;;;;;;;;6267384;22;20012;-82
2022/11/17 11:18:59;;;;;;;9.45;4.47;;;;;;;;;;6268932;22;20050;-82
2022/11/17 11:21:41;;;;;;;7.20;4.65;;;;;;;;;;6242277;23;20012;-82
2022/11/17 11:24:09;;;;;;;7.10;4.80;;;;;;;;;;6267641;22;20026;-81
2022/11/17 11:26:44;;;;;;;6.53;4.25;;;;;;;;;;6243771;23;20019;-81
2022/11/17 11:29:13;;;;;;;7.65;4.57;;;;;;;;;;6241594;23;20065;-81
2022/11/17 11:31:38;;;;;;;7.30;4.68;;;;;;;;;;6243476;22;20000;-81
2022/11/17 11:34:28;;;;;;;7.93;4.63;;;;;;;;;;6241452;23;20008;-82
2022/11/17 11:37:14;;;;;;;6.93;3.95;;;;;;;;;;6242153;23;20011;-82
2022/11/17 11:39:58;;;;;;;6.07;3.75;;;;;;;;;;6241270;23;20085;-82
2022/11/17 11:42:23;;;;;;;5.07;3.10;;;;;;;;;;6242205;23;20016;-81
2022/11/17 11:44:49;;;;;;;4.63;3.28;;;;;;;;;;6242122;23;20498;-81
2022/11/17 11:47:17;;;;;;;5.75;3.13;;;;;;;;;;6242149;23;20035;-81
2022/11/17 11:50:02;;;;;;;5.25;3.20;;;;;;;;;;6242084;23;20000;-82
2022/11/17 11:52:30;;;;;;;7.10;3.67;;;;;;;;;;6242312;23;20448;-82
2022/11/17 11:55:09;;;;;;;5.65;3.45;;;;;;;;;;6267336;22;20454;-80
2022/11/17 11:57:36;;;;;;;6.38;3.80;;;;;;;;;;6241732;23;20103;-81
2022/11/17 12:00:03;;;;;;;10.82;4.90;;;;;;;;;;6266828;22;20024;-81
2022/11/17 12:02:31;;;;;;;6.38;4.07;;;;;;;;;;6266584;22;20391;-82
2022/11/17 12:05:13;;;;;;;6.82;4.03;;;;;;;;;;6243441;22;20054;-82
2022/11/17 12:07:38;;;;;;;9.38;4.38;;;;;;;;;;6241319;22;20103;-81
2022/11/17 12:10:05;;;;;;;7.65;4.80;;;;;;;;;;6241688;23;20035;-81
2022/11/17 12:12:31;;;;;;;9.02;5.07;;;;;;;;;;6266782;22;20019;-81
2022/11/17 12:14:57;;;;;;;;;;;;;;;;;;6241985;23;20003;-80
2022/11/17 12:17:25;;;;;;;7.32;4.68;;;;;;;;;;6240985;23;19907;-80
2022/11/17 12:19:51;;;;;;;9.90;4.47;;;;;;;;;;6215843;23;20007;-80
2022/11/17 12:22:29;;;;;;;8.93;3.80;;;;;;;;;;6242454;22;20012;-80
2022/11/17 12:24:55;;;;;;;11.82;4.25;;;;;;;;;;6242969;23;20452;-81
2022/11/17 12:27:20;;;;;;;;;;;;;;;;;;6242701;22;20004;-81
2022/11/17 12:29:46;;;;;;;8.20;4.30;;;;;;;;;;6241198;23;19923;-81
2022/11/17 12:32:11;;;;;;;6.50;3.97;;;;;;;;;;6240865;23;20000;-81
2022/11/17 12:34:37;;;;;;;8.13;4.70;;;;;;;;;;6266512;22;20011;-81
2022/11/17 12:37:14;;;;;;;9.93;5.10;;;;;;;;;;6266603;22;20000;-81
2022/11/17 12:39:50;;;;;;;7.88;4.57;;;;;;;;;;6243631;22;20167;-82
2022/11/17 12:42:15;;;;;;;12.43;5.05;;;;;;;;;;6241263;23;20023;-81
2022/11/17 12:45:04;;;;;;;10.98;3.95;;;;;;;;;;6267323;22;20004;-81
2022/11/17 12:47:31;;;;;;;9.73;4.50;;;;;;;;;;6230439;22;20023;-82
2022/11/17 12:50:05;;;;;;;12.30;4.05;;;;;;;;;;6266234;22;20464;-80
2022/11/17 12:53:00;;;;;;;7.47;4.00;;;;;;;;;;6240888;23;20038;-80
2022/11/17 12:55:41;;;;;;;15.13;4.22;;;;;;;;;;6215296;23;20024;-81
2022/11/17 12:58:22;;;;;;;11.73;4.50;;;;;;;;;;6240976;22;20023;-81
2022/11/17 13:01:20;;;;;;;6.22;3.83;;;;;;;;;;6240520;23;20394;-81
2022/11/17 13:03:52;;;;;;;8.77;3.50;;;;;;;;;;6175301;23;20020;-79
2022/11/17 13:06:18;;;;;;;11.75;3.88;;;;;;;;;;6242292;23;20023;-79
2022/11/17 13:08:56;;;;;;;9.80;3.95;;;;;;;;;;6242686;23;20471;-80
2022/11/17 13:11:22;;;;;;;12.50;4.22;;;;;;;;;;6242545;22;20008;-81
2022/11/17 13:13:48;;;;;;;9.90;3.95;;;;;;;;;;6267217;22;20007;-81
2022/11/17 13:16:19;;;;;;;6.50;3.40;;;;;;;;;;6268273;22;20353;-82
2022/11/17 13:18:45;;;;;;;9.73;4.00;;;;;;;;;;6244344;22;20012;-81
2022/11/17 13:21:15;;;;;;;10.00;3.50;;;;;;;;;;6268496;22;20309;-80
2022/11/17 13:23:44;;;;;;;11.25;4.55;;;;;;;;;;6268302;22;20012;-80
2022/11/17 13:26:15;;;;;;;16.92;4.90;;;;;;;;;;6268127;22;20439;-80
2022/11/17 13:28:41;;;;;;;10.82;3.92;;;;;;;;;;6244316;22;20367;-80
2022/11/17 13:31:11;;;;;;;6.70;3.42;;;;;;;;;;6245011;22;20039;-82
2022/11/17 13:33:36;;;;;;;8.70;3.65;;;;;;;;;;6268128;22;20348;-81
2022/11/17 13:36:06;;;;;;;6.68;3.58;;;;;;;;;;6268522;22;20031;-81
2022/11/17 13:38:31;;;;;;;8.90;3.83;;;;;;;;;;6244225;22;20020;-81
2022/11/17 13:40:57;;;;;;;9.40;3.70;;;;;;;;;;6244196;22;20027;-80
2022/11/17 13:43:23;;;;;;;9.63;3.95;;;;;;;;;;6243006;23;20115;-81
2022/11/17 13:45:48;;;;;;;15.40;4.82;;;;;;;;;;6268274;22;20007;-81
2022/11/17 13:48:33;;;;;;;10.15;4.72;;;;;;;;;;6268027;22;20118;-80
2022/11/17 13:51:13;;;;;;;11.13;3.95;;;;;;;;;;6242575;23;20329;-80
2022/11/17 13:53:40;;;;;;;9.07;3.55;;;;;;;;;;6242427;23;20347;-79
2022/11/17 13:56:18;;;;;;;8.38;4.03;;;;;;;;;;6244388;22;20004;-82
2022/11/17 13:58:46;;;;;;;6.95;4.03;;;;;;;;;;6244239;22;20478;-81
2022/11/17 14:01:12;;;;;;;9.95;4.25;;;;;;;;;;6242546;23;20079;-81
2022/11/17 14:03:39;;;;;;;12.85;4.45;;;;;;;;;;6267622;22;20012;-81
2022/11/17 14:06:08;;;;;;;9.30;4.57;;;;;;;;;;6242426;23;20012;-80
2022/11/17 14:08:36;;;;;;;15.52;5.03;;;;;;;;;;6268131;22;20127;-80
2022/11/17 14:11:01;;;;;;;;;;;;;;;;;;6245754;22;20015;-81
2022/11/17 14:13:28;;;;;;;12.88;5.15;;;;;;;;;;6244384;22;20255;-80
2022/11/17 14:15:55;;;;;;;7.63;5.15;;;;;;;;;;6244117;22;20058;-80
2022/11/17 14:18:37;;;;;;;12.73;5.80;;;;;;;;;;6244333;23;20011;-81
2022/11/17 14:21:06;;;;;;;10.93;5.55;;;;;;;;;;6267252;22;20038;-80
2022/11/17 14:23:32;;;;;;;11.40;6.82;;;;;;;;;;6267528;22;20035;-80
2022/11/17 14:25:57;;;;;;;12.55;5.75;;;;;;;;;;6241966;23;20435;-81
2022/11/17 14:28:23;;;;;;;9.02;5.85;;;;;;;;;;6268225;22;20455;-80
2022/11/17 14:30:49;;;;;;;11.93;5.63;;;;;;;;;;6241979;23;20028;-81
2022/11/17 14:33:14;;;;;;;16.50;6.30;;;;;;;;;;6268158;22;20008;-81
2022/11/17 14:35:40;;;;;;;14.10;5.35;;;;;;;;;;6242214;23;20494;-80
2022/11/17 14:38:08;;;;;;;12.80;5.65;;;;;;;;;;6268400;22;20058;-82
2022/11/17 14:40:33;;;;;;;15.63;5.53;;;;;;;;;;6267597;22;19996;-81
2022/11/17 14:42:59;;;;;;;15.82;5.28;;;;;;;;;;6243922;23;20019;-80
2022/11/17 14:45:24;;;;;;;13.15;5.40;;;;;;;;;;6243544;23;20342;-80
2022/11/17 14:47:50;;;;;;;10.45;4.97;;;;;;;;;;6243753;23;20455;-81
2022/11/17 14:50:16;;;;;;;8.35;4.53;;;;;;;;;;6243453;22;20400;-80
2022/11/17 14:52:42;;;;;;;15.02;5.85;;;;;;;;;;6242607;23;20016;-80
2022/11/17 14:55:08;;;;;;;7.97;4.95;;;;;;;;;;6242534;23;20057;-80
2022/11/17 14:57:33;;;;;;;11.15;4.93;;;;;;;;;;6268109;22;20051;-80
2022/11/17 14:59:59;;;;;;;9.23;5.25;;;;;;;;;;6267201;22;20028;-80
2022/11/17 15:02:24;;;;;;;11.00;4.88;;;;;;;;;;6267675;22;20038;-79
2022/11/17 15:04:50;;;;;;;11.43;5.57;;;;;;;;;;6241420;23;20034;-80
2022/11/17 15:07:15;;;;;;;15.38;5.40;;;;;;;;;;6243398;23;20023;-80
2022/11/17 15:09:41;;;;;;;8.02;4.55;;;;;;;;;;6267136;22;20389;-80